Time;durP1;ratioP1;P1;durP2;ratioP2;P2;SDS_P1;SDS_P2;PMS_P1;PMS_P2;Temp;Humidity;BMP_temperature;BMP_pressure;BME280_temperature;BME280_humidity;BME280_pressure;Samples;Min_cycle;Max_cycle;Signal;HPM_P1;HPM_P2
2021/01/23 00:01:52;;;;;;;11.68;5.15;;;256.70;1817.60;;;;;;5092871;28;20135;-65
2021/01/23 00:04:17;;;;;;;11.35;5.60;;;256.80;1792.00;;;;;;5093393;28;20437;-64
2021/01/23 00:06:43;;;;;;;9.65;5.50;;;256.70;1817.60;;;;;;5093212;28;20099;-67
2021/01/23 00:09:09;;;;;;;9.98;5.20;;;256.80;1792.00;;;;;;5092540;28;20476;-66
2021/01/23 00:11:34;;;;;;;9.07;5.00;;;256.70;1817.60;;;;;;5092907;28;20023;-65
2021/01/23 00:14:00;;;;;;;9.95;5.50;;;256.80;1792.00;;;;;;5092970;28;20019;-69
2021/01/23 00:16:26;;;;;;;10.45;5.43;;;256.70;1792.00;;;;;;5093000;28;20081;-65
2021/01/23 00:18:51;;;;;;;12.02;6.07;;;256.90;1792.00;;;;;;5092830;28;20476;-66
2021/01/23 00:21:17;;;;;;;9.90;5.88;;;256.90;1792.00;;;;;;5093147;28;20357;-66
2021/01/23 00:23:42;;;;;;;9.77;5.20;;;256.90;1792.00;;;;;;5092623;28;20028;-65
2021/01/23 00:26:08;;;;;;;8.88;5.13;;;256.90;1792.00;;;;;;5092713;28;20074;-69
2021/01/23 00:28:34;;;;;;;8.57;4.65;;;256.90;1766.40;;;;;;5093091;28;20050;-69
2021/01/23 00:31:00;;;;;;;8.55;4.63;;;281.60;1792.00;;;;;;5093091;28;20034;-66
2021/01/23 00:33:26;;;;;;;10.80;5.25;;;281.70;1792.00;;;;;;5092998;28;20104;-69
2021/01/23 00:35:52;;;;;;;7.90;4.40;;;281.60;1792.00;;;;;;5092950;28;20047;-65
2021/01/23 00:38:17;;;;;;;10.02;5.18;;;281.70;1792.00;;;;;;5092631;28;20031;-67
2021/01/23 00:40:43;;;;;;;10.18;5.22;;;281.70;1792.00;;;;;;5092528;28;20024;-69
2021/01/23 00:43:09;;;;;;;10.75;5.40;;;281.70;1792.00;;;;;;5092879;28;20051;-70
2021/01/23 00:45:35;;;;;;;9.23;5.22;;;281.70;1792.00;;;;;;5092895;28;20358;-69
2021/01/23 00:48:10;;;;;;;9.18;5.25;;;281.70;1792.00;;;;;;5092905;28;20023;-69
2021/01/23 00:50:36;;;;;;;9.82;4.93;;;281.70;1792.00;;;;;;5074447;28;20028;-64
2021/01/23 00:53:02;;;;;;;11.48;5.43;;;281.70;1792.00;;;;;;5092700;28;20020;-65
2021/01/23 00:55:28;;;;;;;11.00;5.35;;;281.70;1792.00;;;;;;5092431;28;20020;-66
2021/01/23 00:57:53;;;;;;;10.25;5.28;;;281.80;1766.40;;;;;;5092402;28;20069;-64
2021/01/23 01:00:19;;;;;;;12.38;4.68;;;281.90;1766.40;;;;;;5092256;28;20042;-69
2021/01/23 01:02:45;;;;;;;10.45;5.25;;;282.00;1740.80;;;;;;5092740;28;20028;-71
2021/01/23 01:05:11;;;;;;;8.30;4.90;;;282.00;1740.80;;;;;;5091923;28;20530;-75
2021/01/23 01:07:36;;;;;;;9.07;4.93;;;282.00;1740.80;;;;;;5074281;28;20032;-75
2021/01/23 01:10:03;;;;;;;8.63;4.07;;;282.00;1740.80;;;;;;5092359;28;20028;-77
2021/01/23 01:12:28;;;;;;;7.32;4.07;;;282.00;1740.80;;;;;;5074663;28;20197;-75
2021/01/23 01:14:54;;;;;;;8.90;4.18;;;282.00;1740.80;;;;;;5073429;28;20021;-65
2021/01/23 01:17:19;;;;;;;8.15;4.35;;;282.10;1740.80;;;;;;5092078;28;20150;-66
2021/01/23 01:19:45;;;;;;;10.35;5.40;;;282.20;1715.20;;;;;;5091643;28;20549;-65
2021/01/23 01:22:11;;;;;;;10.93;5.65;;;282.20;1715.20;;;;;;5089967;28;20032;-65
2021/01/23 01:24:36;;;;;;;8.05;4.50;;;282.20;1740.80;;;;;;5092265;28;20028;-66
2021/01/23 01:27:02;;;;;;;7.93;4.20;;;282.10;1740.80;;;;;;5161864;22;20055;-65
2021/01/23 01:29:28;;;;;;;7.93;3.78;;;282.10;1740.80;;;;;;5109039;28;20472;-65
2021/01/23 01:31:53;;;;;;;6.95;4.07;;;282.10;1715.20;;;;;;5111756;28;20020;-65
2021/01/23 01:34:19;;;;;;;8.07;3.95;;;282.10;1740.80;;;;;;5112732;28;20468;-67
2021/01/23 01:36:45;;;;;;;7.05;3.88;;;282.10;1740.80;;;;;;5096841;28;20023;-66
2021/01/23 01:39:10;;;;;;;7.00;3.97;;;282.10;1740.80;;;;;;5112588;28;20027;-65
2021/01/23 01:41:37;;;;;;;8.93;4.10;;;282.10;1740.80;;;;;;5112748;28;20034;-66
2021/01/23 01:44:04;;;;;;;8.57;3.63;;;282.10;1740.80;;;;;;5112575;28;20020;-66
2021/01/23 01:46:29;;;;;;;8.13;4.20;;;282.10;1740.80;;;;;;5112889;28;20039;-67
2021/01/23 01:48:56;;;;;;;5.97;3.45;;;282.00;1740.80;;;;;;5111069;28;20020;-66
2021/01/23 01:51:21;;;;;;;7.53;3.60;;;282.10;1740.80;;;;;;5114107;28;20047;-66
2021/01/23 01:53:47;;;;;;;6.47;3.63;;;282.10;1740.80;;;;;;5115122;28;20065;-66
2021/01/23 01:56:13;;;;;;;6.70;3.80;;;282.20;1715.20;;;;;;5115370;28;20051;-65
2021/01/23 01:58:38;;;;;;;7.13;3.58;;;282.20;1715.20;;;;;;5116374;28;20154;-66
2021/01/23 02:01:04;;;;;;;6.22;3.58;;;282.20;1715.20;;;;;;5113960;28;20470;-66
2021/01/23 02:04:02;;;;;;;7.25;3.75;;;282.20;1715.20;;;;;;5099704;28;20072;-66
2021/01/23 02:06:54;;;;;;;8.80;4.25;;;282.20;1715.20;;;;;;5102387;28;20081;-69
2021/01/23 02:09:38;;;;;;;6.93;3.65;;;282.20;1715.20;;;;;;5101603;28;20415;-65
2021/01/23 02:12:22;;;;;;;7.03;3.75;;;282.20;1715.20;;;;;;5115851;28;20033;-66
2021/01/23 02:14:59;;;;;;;7.05;3.30;;;282.30;1715.20;;;;;;5114918;28;20015;-70
2021/01/23 02:17:28;;;;;;;10.43;4.60;;;282.30;1715.20;;;;;;5100461;28;20047;-69
2021/01/23 02:20:24;;;;;;;8.25;3.15;;;282.30;1689.60;;;;;;5115412;28;20388;-66
2021/01/23 02:23:11;;;;;;;7.15;3.50;;;282.40;1689.60;;;;;;5115228;28;20027;-66
2021/01/23 02:25:52;;;;;;;8.40;3.90;;;282.40;1689.60;;;;;;5115415;28;20062;-69
2021/01/23 02:28:20;;;;;;;5.95;2.90;;;282.40;1689.60;;;;;;5115291;28;20502;-65
2021/01/23 02:31:01;;;;;;;7.07;3.25;;;282.30;1689.60;;;;;;5100768;28;20069;-68
2021/01/23 02:33:27;;;;;;;7.22;3.08;;;282.30;1689.60;;;;;;5115192;28;20035;-69
2021/01/23 02:35:53;;;;;;;5.68;3.15;;;282.40;1689.60;;;;;;5084957;28;20019;-65
2021/01/23 02:38:19;;;;;;;5.47;3.17;;;282.50;1689.60;;;;;;5099068;28;20024;-66
2021/01/23 02:40:44;;;;;;;7.88;3.63;;;282.40;1664.00;;;;;;5081306;28;20377;-66
2021/01/23 02:43:10;;;;;;;7.32;3.28;;;282.50;1689.60;;;;;;5081914;28;20032;-66
2021/01/23 02:45:36;;;;;;;6.78;3.10;;;282.50;1664.00;;;;;;5115297;28;20020;-70
2021/01/23 02:48:02;;;;;;;8.95;3.38;;;282.50;1664.00;;;;;;5115114;28;20027;-69
2021/01/23 02:50:28;;;;;;;7.78;3.63;;;282.50;1664.00;;;;;;5101642;28;20024;-66
2021/01/23 02:53:20;;;;;;;5.93;2.90;;;282.50;1664.00;;;;;;5115467;28;20349;-65
2021/01/23 02:55:46;;;;;;;7.65;3.83;;;282.50;1664.00;;;;;;5098800;28;20368;-65
2021/01/23 02:58:12;;;;;;;10.32;4.25;;;282.40;1664.00;;;;;;5082338;28;20365;-66
2021/01/23 03:00:38;;;;;;;15.20;3.85;;;282.40;1664.00;;;;;;5083078;28;20023;-65
2021/01/23 03:03:03;;;;;;;11.00;4.47;;;282.50;1664.00;;;;;;5099202;28;20482;-66
2021/01/23 03:05:31;;;;;;;8.27;3.90;;;307.20;1664.00;;;;;;5097956;28;20030;-65
2021/01/23 03:07:57;;;;;;;7.63;3.30;;;307.20;1664.00;;;;;;5097226;28;20024;-65
2021/01/23 03:10:39;;;;;;;7.15;3.50;;;307.20;1664.00;;;;;;5114352;28;20076;-65
2021/01/23 03:13:05;;;;;;;7.97;4.10;;;307.20;1664.00;;;;;;5114949;28;20433;-68
2021/01/23 03:15:31;;;;;;;6.70;3.17;;;307.30;1664.00;;;;;;5114228;28;20305;-70
2021/01/23 03:17:57;;;;;;;7.70;3.75;;;307.20;1664.00;;;;;;5114904;28;20042;-70
2021/01/23 03:20:23;;;;;;;5.40;2.97;;;307.20;1689.60;;;;;;5114306;28;20476;-66
2021/01/23 03:22:49;;;;;;;7.50;3.60;;;307.20;1664.00;;;;;;5114677;28;20027;-67
2021/01/23 03:25:14;;;;;;;8.70;3.80;;;307.20;1689.60;;;;;;5112764;28;20077;-66
2021/01/23 03:27:40;;;;;;;10.43;4.47;;;307.20;1689.60;;;;;;5114124;28;20023;-65
2021/01/23 03:30:07;;;;;;;7.88;3.50;;;307.20;1689.60;;;;;;5114461;28;20114;-66
2021/01/23 03:32:32;;;;;;;9.45;4.38;;;307.30;1664.00;;;;;;5114250;28;20018;-66
2021/01/23 03:34:58;;;;;;;7.72;3.40;;;307.30;1664.00;;;;;;5114221;28;20024;-70
2021/01/23 03:37:26;;;;;;;7.93;3.88;;;307.20;1689.60;;;;;;5098232;28;20030;-70
2021/01/23 03:39:52;;;;;;;6.85;3.50;;;307.20;1689.60;;;;;;5114139;28;20042;-66
2021/01/23 03:42:18;;;;;;;5.78;3.20;;;307.20;1689.60;;;;;;5114288;28;20480;-69
2021/01/23 03:44:44;;;;;;;5.13;2.80;;;307.20;1689.60;;;;;;5113877;28;20084;-71
2021/01/23 03:47:09;;;;;;;6.38;2.65;;;307.20;1664.00;;;;;;5114369;28;20027;-69
2021/01/23 03:49:35;;;;;;;5.63;2.55;;;307.30;1664.00;;;;;;5113832;28;20024;-68
2021/01/23 03:52:01;;;;;;;4.55;2.53;;;307.30;1664.00;;;;;;5113914;28;20329;-70
2021/01/23 03:54:26;;;;;;;6.97;2.92;;;307.30;1664.00;;;;;;5114050;28;20103;-65
2021/01/23 03:56:52;;;;;;;6.75;2.97;;;307.20;1689.60;;;;;;5113668;28;20020;-64
2021/01/23 03:59:18;;;;;;;4.95;2.78;;;307.20;1689.60;;;;;;5114112;28;20430;-65
2021/01/23 04:01:43;;;;;;;5.80;2.42;;;307.30;1689.60;;;;;;5113702;28;20015;-64
2021/01/23 04:04:09;;;;;;;4.70;2.50;;;307.30;1689.60;;;;;;5113714;28;20486;-65
2021/01/23 04:06:35;;;;;;;6.78;3.15;;;307.20;1689.60;;;;;;5113810;28;20023;-66
2021/01/23 04:09:00;;;;;;;4.15;2.35;;;307.20;1689.60;;;;;;5113543;28;20069;-66
2021/01/23 04:11:26;;;;;;;7.18;2.92;;;307.30;1664.00;;;;;;5113661;28;20018;-64
2021/01/23 04:13:51;;;;;;;4.65;2.80;;;307.20;1689.60;;;;;;5113460;28;20023;-64
2021/01/23 04:16:17;;;;;;;5.40;2.97;;;307.20;1664.00;;;;;;5113526;28;20099;-65
2021/01/23 04:18:43;;;;;;;6.18;3.30;;;307.20;1689.60;;;;;;5113506;28;20019;-65
2021/01/23 04:21:08;;;;;;;5.85;3.03;;;307.20;1689.60;;;;;;5113446;28;20446;-64
2021/01/23 04:23:34;;;;;;;7.20;3.00;;;307.20;1689.60;;;;;;5113541;28;20098;-65
2021/01/23 04:26:00;;;;;;;5.70;2.70;;;307.20;1664.00;;;;;;5113106;28;20086;-65
2021/01/23 04:28:26;;;;;;;5.68;2.60;;;307.20;1664.00;;;;;;5111870;28;20031;-65
2021/01/23 04:30:51;;;;;;;5.38;2.70;;;307.20;1689.60;;;;;;5113077;28;20529;-64
2021/01/23 04:33:17;;;;;;;5.85;2.90;;;307.20;1664.00;;;;;;5113180;28;20034;-65
2021/01/23 04:35:42;;;;;;;5.28;2.58;;;307.20;1664.00;;;;;;5113144;28;20497;-65
2021/01/23 04:38:08;;;;;;;5.85;2.55;;;307.20;1664.00;;;;;;5113250;28;20054;-66
2021/01/23 04:40:35;;;;;;;5.15;2.60;;;307.20;1664.00;;;;;;5113102;28;20098;-65
2021/01/23 04:43:00;;;;;;;5.18;2.55;;;307.20;1689.60;;;;;;5112943;28;20032;-64
2021/01/23 04:45:26;;;;;;;4.93;2.63;;;307.20;1689.60;;;;;;5080920;28;20026;-65
2021/01/23 04:47:55;;;;;;;5.78;2.70;;;307.20;1689.60;;;;;;5113084;28;20027;-64
2021/01/23 04:50:21;;;;;;;6.95;3.25;;;307.20;1689.60;;;;;;5112698;28;20484;-63
2021/01/23 04:52:46;;;;;;;6.22;2.95;;;307.20;1689.60;;;;;;5112723;28;20045;-63
2021/01/23 04:55:12;;;;;;;5.90;3.10;;;282.50;1664.00;;;;;;5112927;28;20458;-65
2021/01/23 04:57:38;;;;;;;4.95;2.40;;;282.50;1664.00;;;;;;5112877;28;20087;-64
2021/01/23 05:00:07;;;;;;;6.28;2.88;;;282.50;1664.00;;;;;;5112826;28;20111;-64
2021/01/23 05:02:32;;;;;;;6.25;2.58;;;282.40;1664.00;;;;;;5113080;28;20419;-66
2021/01/23 05:05:00;;;;;;;5.15;2.60;;;282.40;1664.00;;;;;;5113405;28;20020;-69
2021/01/23 05:07:38;;;;;;;4.65;2.58;;;282.50;1664.00;;;;;;5112548;28;20106;-70
2021/01/23 05:10:14;;;;;;;5.78;2.80;;;282.50;1664.00;;;;;;5112277;28;20028;-68
2021/01/23 05:12:53;;;;;;;4.40;2.50;;;282.50;1664.00;;;;;;5112719;28;20023;-69
2021/01/23 05:15:33;;;;;;;5.05;2.60;;;282.40;1664.00;;;;;;5112621;28;20476;-69
2021/01/23 05:18:06;;;;;;;5.55;2.50;;;282.40;1664.00;;;;;;5112463;28;20028;-73
2021/01/23 05:20:39;;;;;;;5.75;2.60;;;282.40;1664.00;;;;;;5064152;28;20381;-73
2021/01/23 05:23:06;;;;;;;6.60;2.25;;;282.40;1664.00;;;;;;5112448;28;20034;-68
2021/01/23 05:25:32;;;;;;;6.00;2.88;;;282.40;1664.00;;;;;;5111569;28;20048;-65
2021/01/23 05:27:59;;;;;;;5.13;2.80;;;282.40;1664.00;;;;;;5112976;28;20049;-64
2021/01/23 05:30:25;;;;;;;4.22;2.65;;;282.40;1664.00;;;;;;5112531;28;20024;-65
2021/01/23 05:33:13;;;;;;;5.75;2.75;;;282.40;1664.00;;;;;;5112292;28;20020;-64
2021/01/23 05:35:39;;;;;;;4.45;2.42;;;307.20;1664.00;;;;;;5112164;28;20472;-64
2021/01/23 05:38:21;;;;;;;5.10;2.70;;;282.50;1638.40;;;;;;5112634;28;20418;-68
2021/01/23 05:40:49;;;;;;;5.72;2.90;;;307.20;1664.00;;;;;;5112725;28;20027;-67
2021/01/23 05:43:28;;;;;;;5.32;3.05;;;282.50;1664.00;;;;;;5112780;28;20548;-64
2021/01/23 05:45:53;;;;;;;6.18;2.72;;;307.20;1689.60;;;;;;5095317;28;20023;-63
2021/01/23 05:48:19;;;;;;;4.82;2.50;;;282.50;1638.40;;;;;;5112241;28;20030;-64
2021/01/23 05:50:45;;;;;;;6.20;3.05;;;307.20;1664.00;;;;;;5112210;28;20034;-67
2021/01/23 05:53:10;;;;;;;5.63;2.75;;;307.20;1689.60;;;;;;5112115;28;20027;-64
2021/01/23 05:55:36;;;;;;;5.40;2.67;;;307.20;1689.60;;;;;;5112267;28;20026;-64
2021/01/23 05:58:02;;;;;;;6.95;3.67;;;307.20;1664.00;;;;;;5098835;28;20049;-63
2021/01/23 06:00:27;;;;;;;5.40;3.00;;;282.50;1664.00;;;;;;5112008;28;20051;-68
2021/01/23 06:02:53;;;;;;;9.35;3.08;;;307.20;1689.60;;;;;;5112262;28;20039;-65
2021/01/23 06:05:18;;;;;;;6.20;3.40;;;282.50;1664.00;;;;;;5095223;28;20043;-63
2021/01/23 06:07:45;;;;;;;7.13;3.03;;;282.50;1664.00;;;;;;5112091;28;20027;-64
2021/01/23 06:10:22;;;;;;;5.07;2.83;;;282.50;1664.00;;;;;;5112024;28;20030;-64
2021/01/23 06:12:57;;;;;;;4.18;2.50;;;282.50;1664.00;;;;;;5110915;28;20488;-68
2021/01/23 06:15:32;;;;;;;5.45;2.95;;;282.50;1664.00;;;;;;5112002;28;20054;-65
2021/01/23 06:18:08;;;;;;;6.75;3.15;;;282.50;1664.00;;;;;;5101652;28;20035;-68
2021/01/23 06:20:39;;;;;;;5.57;2.92;;;282.50;1664.00;;;;;;5112248;28;20107;-67
2021/01/23 06:23:06;;;;;;;5.93;2.95;;;282.40;1664.00;;;;;;5112004;28;20626;-64
2021/01/23 06:25:50;;;;;;;6.93;3.17;;;307.20;1689.60;;;;;;5111923;28;20048;-65
2021/01/23 06:28:21;;;;;;;5.50;3.08;;;282.50;1689.60;;;;;;5112075;28;20027;-67
2021/01/23 06:30:47;;;;;;;5.72;3.53;;;282.50;1664.00;;;;;;5112095;28;20451;-63
2021/01/23 06:33:21;;;;;;;5.13;2.78;;;282.50;1664.00;;;;;;5111973;28;20043;-62
2021/01/23 06:36:05;;;;;;;6.00;3.20;;;307.20;1689.60;;;;;;5112037;28;20015;-66
2021/01/23 06:38:31;;;;;;;6.50;3.53;;;307.20;1689.60;;;;;;5113866;28;20095;-65
2021/01/23 06:41:26;;;;;;;6.05;3.70;;;307.20;1689.60;;;;;;5115511;28;20439;-63
2021/01/23 06:44:06;;;;;;;6.05;3.55;;;307.20;1689.60;;;;;;5113863;28;20105;-63
2021/01/23 06:46:32;;;;;;;;;;;307.20;1689.60;;;;;;5115557;28;20492;-64
2021/01/23 06:49:05;;;;;;;5.90;3.17;;;307.20;1689.60;;;;;;5115398;28;19904;-64
2021/01/23 06:51:30;;;;;;;5.82;3.80;;;307.20;1689.60;;;;;;5114952;28;20044;-65
2021/01/23 06:54:21;;;;;;;7.40;3.97;;;307.20;1689.60;;;;;;5115298;28;20039;-64
2021/01/23 06:56:49;;;;;;;7.00;3.60;;;307.20;1715.20;;;;;;5114709;28;20023;-65
2021/01/23 06:59:28;;;;;;;7.15;3.78;;;307.30;1689.60;;;;;;5115507;28;20027;-64
2021/01/23 07:02:14;;;;;;;6.30;3.90;;;307.20;1689.60;;;;;;5114782;28;20024;-64
2021/01/23 07:04:49;;;;;;;8.32;5.93;;;307.30;1689.60;;;;;;5114909;28;20049;-64
2021/01/23 07:07:16;;;;;;;6.47;4.20;;;307.20;1715.20;;;;;;5114650;28;20028;-64
2021/01/23 07:09:47;;;;;;;8.55;4.13;;;307.20;1689.60;;;;;;5114707;28;20205;-65
2021/01/23 07:12:32;;;;;;;8.50;3.90;;;307.30;1689.60;;;;;;5115105;28;20016;-65
2021/01/23 07:14:57;;;;;;;8.20;4.05;;;307.30;1689.60;;;;;;5114927;28;20015;-64
2021/01/23 07:17:23;;;;;;;8.38;4.18;;;307.30;1689.60;;;;;;5114574;28;20086;-68
2021/01/23 07:19:49;;;;;;;6.82;3.42;;;307.30;1689.60;;;;;;5114667;28;20027;-68
2021/01/23 07:22:14;;;;;;;7.03;3.63;;;307.30;1689.60;;;;;;5114581;28;20016;-68
2021/01/23 07:24:40;;;;;;;6.97;4.00;;;307.40;1689.60;;;;;;5105891;28;20027;-67
2021/01/23 07:27:06;;;;;;;7.25;4.45;;;307.30;1689.60;;;;;;5114179;28;20055;-65
2021/01/23 07:29:32;;;;;;;7.95;4.40;;;307.30;1689.60;;;;;;5101276;28;20384;-72
2021/01/23 07:31:57;;;;;;;7.82;4.47;;;307.40;1689.60;;;;;;5114472;28;20124;-69
2021/01/23 07:34:23;;;;;;;7.10;4.70;;;307.40;1689.60;;;;;;5114272;28;20468;-69
2021/01/23 07:36:49;;;;;;;6.50;4.05;;;307.40;1689.60;;;;;;5114222;28;20080;-65
2021/01/23 07:39:16;;;;;;;7.18;4.82;;;307.50;1689.60;;;;;;5114805;28;20027;-66
2021/01/23 07:41:51;;;;;;;7.57;4.63;;;307.50;1689.60;;;;;;5096486;28;20387;-69
2021/01/23 07:44:17;;;;;;;8.25;4.20;;;307.60;1689.60;;;;;;5082078;28;20091;-66
2021/01/23 07:46:44;;;;;;;7.65;4.55;;;307.60;1664.00;;;;;;5097030;28;20484;-65
2021/01/23 07:49:20;;;;;;;7.32;3.45;;;307.60;1664.00;;;;;;5100222;28;20122;-66
2021/01/23 07:51:46;;;;;;;7.97;4.15;;;307.70;1664.00;;;;;;5114076;28;20026;-65
2021/01/23 07:54:12;;;;;;;7.53;4.38;;;307.70;1664.00;;;;;;5100959;28;20391;-66
2021/01/23 07:56:49;;;;;;;5.88;3.50;;;307.80;1664.00;;;;;;5113890;28;20022;-66
2021/01/23 07:59:14;;;;;;;7.65;4.43;;;307.80;1638.40;;;;;;5113997;28;20076;-66
2021/01/23 08:01:40;;;;;;;7.65;4.30;;;307.90;1638.40;;;;;;5113822;28;20027;-67
2021/01/23 08:04:05;;;;;;;6.45;4.00;;;307.90;1638.40;;;;;;5111471;28;20543;-69
2021/01/23 08:06:31;;;;;;;7.97;4.75;;;307.90;1638.40;;;;;;5113994;28;20027;-65
2021/01/23 08:08:57;;;;;;;9.25;4.47;;;308.00;1638.40;;;;;;5113541;28;20033;-72
2021/01/23 08:11:32;;;;;;;13.50;6.72;;;308.00;1638.40;;;;;;5079708;28;20026;-66
2021/01/23 08:14:14;;;;;;;22.80;12.68;;;308.10;1638.40;;;;;;5114012;28;20037;-66
2021/01/23 08:16:50;;;;;;;21.85;12.50;;;308.10;1638.40;;;;;;5113760;28;20076;-67
2021/01/23 08:19:15;;;;;;;16.73;9.40;;;308.10;1638.40;;;;;;5113367;28;20468;-69
2021/01/23 08:21:41;;;;;;;10.77;5.97;;;308.10;1638.40;;;;;;5062424;28;20049;-71
2021/01/23 08:24:27;;;;;;;9.00;4.90;;;308.10;1638.40;;;;;;5113419;28;20099;-71
2021/01/23 08:26:53;;;;;;;13.40;9.55;;;332.80;1664.00;;;;;;5113402;28;20129;-70
2021/01/23 08:29:19;;;;;;;7.90;5.22;;;332.80;1664.00;;;;;;5113202;28;20044;-69
2021/01/23 08:32:02;;;;;;;8.43;5.45;;;332.80;1664.00;;;;;;5113373;28;20392;-69
2021/01/23 08:34:27;;;;;;;8.45;6.05;;;332.80;1664.00;;;;;;5099260;28;20024;-68
2021/01/23 08:36:53;;;;;;;9.93;6.30;;;332.80;1664.00;;;;;;5113242;28;20019;-69
2021/01/23 08:39:19;;;;;;;8.63;5.22;;;332.80;1664.00;;;;;;5099957;28;20467;-66
2021/01/23 08:41:44;;;;;;;12.70;7.32;;;332.90;1664.00;;;;;;5099307;28;20023;-66
2021/01/23 08:44:10;;;;;;;11.80;6.45;;;332.90;1664.00;;;;;;5104935;28;20039;-66
2021/01/23 08:46:36;;;;;;;8.68;4.10;;;332.90;1638.40;;;;;;5112127;28;20557;-67
2021/01/23 08:49:01;;;;;;;11.02;6.20;;;333.00;1638.40;;;;;;5109930;28;20111;-70
2021/01/23 08:51:27;;;;;;;8.27;4.60;;;333.00;1638.40;;;;;;5112261;28;20018;-69
2021/01/23 08:53:53;;;;;;;9.38;4.80;;;333.00;1638.40;;;;;;5112244;28;20419;-67
2021/01/23 08:56:19;;;;;;;12.23;7.00;;;333.00;1638.40;;;;;;5112488;28;20016;-71
2021/01/23 08:58:44;;;;;;;14.25;7.45;;;333.10;1638.40;;;;;;5111152;28;20020;-67
2021/01/23 09:01:10;;;;;;;18.75;9.90;;;333.20;1638.40;;;;;;5096689;28;20035;-70
2021/01/23 09:03:38;;;;;;;16.42;10.32;;;333.20;1638.40;;;;;;5103479;28;20541;-67
2021/01/23 09:06:04;;;;;;;12.25;7.05;;;333.20;1612.80;;;;;;5085643;28;20115;-67
2021/01/23 09:08:29;;;;;;;10.82;6.80;;;333.30;1612.80;;;;;;5098957;28;20086;-66
2021/01/23 09:10:55;;;;;;;16.58;9.55;;;333.40;1612.80;;;;;;5106320;28;20536;-66
2021/01/23 09:13:21;;;;;;;11.38;5.60;;;333.40;1612.80;;;;;;5094978;28;20027;-68
2021/01/23 09:15:46;;;;;;;12.80;7.70;;;333.40;1612.80;;;;;;5111298;28;20076;-70
2021/01/23 09:18:12;;;;;;;11.55;5.72;;;333.50;1612.80;;;;;;5111618;28;20102;-66
2021/01/23 09:20:38;;;;;;;9.38;6.13;;;333.60;1587.20;;;;;;5111022;28;20547;-67
2021/01/23 09:23:03;;;;;;;15.80;10.05;;;333.60;1587.20;;;;;;5110638;28;20038;-67
2021/01/23 09:25:29;;;;;;;15.52;8.05;;;333.70;1587.20;;;;;;5103590;28;20047;-68
2021/01/23 09:27:54;;;;;;;14.60;7.80;;;333.70;1587.20;;;;;;5103218;28;20032;-67
2021/01/23 09:30:20;;;;;;;18.48;9.15;;;333.70;1587.20;;;;;;5103652;28;20460;-69
2021/01/23 09:32:46;;;;;;;15.68;7.15;;;333.70;1587.20;;;;;;5106895;28;20049;-65
2021/01/23 09:35:12;;;;;;;15.48;8.82;;;333.70;1587.20;;;;;;5098635;28;20024;-75
2021/01/23 09:37:41;;;;;;;22.63;10.82;;;333.70;1587.20;;;;;;5091228;28;20027;-67
2021/01/23 09:40:07;;;;;;;10.45;6.40;;;333.70;1587.20;;;;;;5100801;28;20032;-67
2021/01/23 09:42:33;;;;;;;12.27;6.20;;;333.70;1587.20;;;;;;5089974;28;20030;-70
2021/01/23 09:44:58;;;;;;;16.70;8.48;;;333.70;1587.20;;;;;;5096023;28;20024;-70
2021/01/23 09:47:24;;;;;;;10.68;5.80;;;333.70;1587.20;;;;;;5094723;28;20459;-67
2021/01/23 09:49:50;;;;;;;9.23;5.25;;;358.40;1587.20;;;;;;5101889;28;20086;-67
2021/01/23 09:52:15;;;;;;;10.82;6.50;;;358.40;1561.60;;;;;;5111417;28;20484;-66
2021/01/23 09:54:41;;;;;;;8.65;5.47;;;358.40;1587.20;;;;;;5108690;28;20036;-66
2021/01/23 09:57:07;;;;;;;9.38;5.28;;;333.70;1587.20;;;;;;5106997;28;20016;-66
2021/01/23 09:59:33;;;;;;;7.97;5.03;;;333.70;1587.20;;;;;;5110620;28;20031;-66
2021/01/23 10:01:59;;;;;;;6.85;4.68;;;333.70;1561.60;;;;;;5103999;28;20020;-66
2021/01/23 10:04:25;;;;;;;9.75;5.15;;;358.40;1561.60;;;;;;5103725;28;20389;-67
2021/01/23 10:06:51;;;;;;;8.82;4.55;;;358.40;1561.60;;;;;;5115331;28;20024;-71
2021/01/23 10:09:17;;;;;;;13.55;7.70;;;358.50;1561.60;;;;;;5100903;28;20107;-70
2021/01/23 10:11:43;;;;;;;12.43;6.93;;;358.50;1536.00;;;;;;5108718;28;20111;-70
2021/01/23 10:14:09;;;;;;;9.95;6.40;;;358.60;1536.00;;;;;;5100729;28;20019;-68
2021/01/23 10:16:35;;;;;;;10.80;6.60;;;358.60;1536.00;;;;;;5113292;28;20076;-68
2021/01/23 10:19:03;;;;;;;10.48;5.22;;;358.80;1536.00;;;;;;5110080;28;20019;-67
2021/01/23 10:21:29;;;;;;;11.48;6.30;;;358.80;1536.00;;;;;;5103098;28;20028;-65
2021/01/23 10:23:54;;;;;;;9.30;6.22;;;358.80;1536.00;;;;;;5109485;27;20033;-65
2021/01/23 10:26:20;;;;;;;14.00;6.50;;;358.80;1536.00;;;;;;5103139;27;20044;-66
2021/01/23 10:28:46;;;;;;;11.20;5.95;;;358.80;1536.00;;;;;;5102628;28;20027;-66
2021/01/23 10:31:11;;;;;;;11.48;6.80;;;358.80;1510.40;;;;;;5113000;28;20040;-66
2021/01/23 10:33:37;;;;;;;11.52;6.20;;;358.90;1536.00;;;;;;5114505;28;20599;-67
2021/01/23 10:36:03;;;;;;;13.75;6.88;;;359.00;1510.40;;;;;;5113068;28;20426;-67
2021/01/23 10:38:28;;;;;;;10.98;6.20;;;359.00;1536.00;;;;;;5110862;28;20023;-67
2021/01/23 10:40:54;;;;;;;12.70;6.30;;;359.00;1510.40;;;;;;5107222;28;20076;-66
2021/01/23 10:43:20;;;;;;;12.30;5.97;;;359.00;1510.40;;;;;;5099957;28;20032;-66
2021/01/23 10:45:47;;;;;;;11.48;6.82;;;359.10;1484.80;;;;;;5095354;28;20380;-66
2021/01/23 10:48:12;;;;;;;8.63;5.55;;;359.10;1510.40;;;;;;5099295;28;20103;-67
2021/01/23 10:50:38;;;;;;;10.30;6.18;;;359.10;1484.80;;;;;;5112720;28;20548;-66
2021/01/23 10:53:04;;;;;;;15.00;5.35;;;359.10;1484.80;;;;;;5107824;28;20103;-66
2021/01/23 10:55:29;;;;;;;9.05;5.60;;;359.10;1484.80;;;;;;5102580;28;20058;-67
2021/01/23 10:57:55;;;;;;;10.10;6.10;;;359.20;1484.80;;;;;;5101253;28;20020;-67
2021/01/23 11:00:21;;;;;;;7.38;3.97;;;359.10;1510.40;;;;;;5098256;28;20185;-67
2021/01/23 11:02:47;;;;;;;10.45;4.90;;;359.00;1484.80;;;;;;5096372;28;20020;-67
2021/01/23 11:05:12;;;;;;;7.18;4.10;;;359.00;1510.40;;;;;;5097802;28;20392;-70
2021/01/23 11:07:38;;;;;;;10.20;6.00;;;359.00;1484.80;;;;;;5096060;28;20028;-67
2021/01/23 11:10:04;;;;;;;9.27;5.78;;;359.00;1484.80;;;;;;5094499;28;20023;-67
2021/01/23 11:12:30;;;;;;;6.10;3.67;;;359.00;1484.80;;;;;;5101312;28;20019;-66
2021/01/23 11:14:56;;;;;;;18.48;11.68;;;359.00;1484.80;;;;;;5104772;28;20016;-66
2021/01/23 11:17:21;;;;;;;8.18;5.13;;;359.00;1510.40;;;;;;5106654;28;20471;-67
2021/01/23 11:19:47;;;;;;;8.65;5.15;;;359.00;1484.80;;;;;;5105933;28;20028;-67
2021/01/23 11:22:12;;;;;;;6.55;4.22;;;359.10;1484.80;;;;;;5099878;28;20034;-67
2021/01/23 11:24:40;;;;;;;7.57;4.60;;;359.10;1484.80;;;;;;5095876;28;20100;-68
2021/01/23 11:27:06;;;;;;;11.43;7.18;;;359.00;1484.80;;;;;;5097841;28;20492;-70
2021/01/23 11:29:31;;;;;;;7.25;4.25;;;359.00;1484.80;;;;;;5095310;28;20039;-69
2021/01/23 11:31:57;;;;;;;9.15;5.30;;;359.00;1484.80;;;;;;5094635;28;20012;-70
2021/01/23 11:34:23;;;;;;;8.60;4.82;;;359.00;1484.80;;;;;;5094096;28;20393;-65
2021/01/23 11:36:48;;;;;;;9.52;5.45;;;359.00;1510.40;;;;;;5114674;28;20031;-66
2021/01/23 11:39:14;;;;;;;10.38;6.75;;;359.00;1510.40;;;;;;5114424;28;20024;-66
2021/01/23 11:41:39;;;;;;;9.02;6.10;;;359.00;1510.40;;;;;;5114276;28;20023;-66
2021/01/23 11:44:06;;;;;;;10.00;5.82;;;359.00;1510.40;;;;;;5114251;28;20468;-67
2021/01/23 11:46:31;;;;;;;9.38;4.93;;;359.10;1510.40;;;;;;5114286;28;20043;-67
2021/01/23 11:48:57;;;;;;;6.38;4.03;;;359.00;1510.40;;;;;;5114425;28;20051;-66
2021/01/23 11:51:23;;;;;;;9.30;5.93;;;359.00;1484.80;;;;;;5097872;28;20440;-70
2021/01/23 11:53:48;;;;;;;9.73;6.25;;;359.10;1510.40;;;;;;5100549;28;20015;-66
2021/01/23 11:56:14;;;;;;;8.00;4.80;;;359.00;1510.40;;;;;;5102128;28;20024;-67
2021/01/23 11:58:42;;;;;;;7.53;4.22;;;359.00;1510.40;;;;;;5113580;28;20039;-67
2021/01/23 12:01:07;;;;;;;8.00;3.92;;;359.00;1510.40;;;;;;5114950;27;20555;-67
2021/01/23 12:03:33;;;;;;;8.57;4.50;;;359.00;1484.80;;;;;;5114821;27;20098;-66
2021/01/23 12:05:59;;;;;;;9.60;5.20;;;359.00;1510.40;;;;;;5113888;28;20016;-67
2021/01/23 12:08:25;;;;;;;8.82;4.82;;;359.00;1510.40;;;;;;5106538;27;20027;-66
2021/01/23 12:10:50;;;;;;;9.13;4.90;;;359.00;1510.40;;;;;;5107796;28;20034;-67
2021/01/23 12:13:16;;;;;;;10.40;6.20;;;358.90;1510.40;;;;;;5113221;28;20023;-67
2021/01/23 12:15:41;;;;;;;13.48;6.65;;;359.00;1510.40;;;;;;5103624;28;20032;-70
2021/01/23 12:18:07;;;;;;;10.45;5.38;;;359.00;1510.40;;;;;;5099188;28;20020;-66
2021/01/23 12:20:33;;;;;;;11.60;5.40;;;359.00;1510.40;;;;;;5095485;28;20384;-67